Time;durP1;ratioP1;P1;durP2;ratioP2;P2;SDS_P1;SDS_P2;PMS_P1;PMS_P2;Temp;Humidity;BMP_temperature;BMP_pressure;BME280_temperature;BME280_humidity;BME280_pressure;Samples;Min_cycle;Max_cycle;Signal;HPM_P1;HPM_P2
2022/03/06 00:00:25;;;;;;;24.60;11.87;;;;;;;;;;5019922;28;20574;-66
2022/03/06 00:02:51;;;;;;;25.23;11.83;;;;;;;;;;5017944;28;20189;-66
2022/03/06 00:05:16;;;;;;;26.57;10.33;;;;;;;;;;5019788;28;20351;-66
2022/03/06 00:07:41;;;;;;;27.27;11.83;;;;;;;;;;5016898;28;20190;-66
2022/03/06 00:10:07;;;;;;;27.83;11.73;;;;;;;;;;5017265;28;20571;-66
2022/03/06 00:12:33;;;;;;;24.00;11.07;;;;;;;;;;5015728;28;20495;-66
2022/03/06 00:14:58;;;;;;;25.53;11.67;;;;;;;;;;5019679;28;20183;-66
2022/03/06 00:17:23;;;;;;;27.33;11.97;;;;;;;;;;5016253;28;20335;-67
2022/03/06 00:19:49;;;;;;;21.47;11.27;;;;;;;;;;5017598;28;20639;-67
2022/03/06 00:22:14;;;;;;;24.40;11.27;;;;;;;;;;5015592;28;20618;-66
2022/03/06 00:24:40;;;;;;;21.50;11.03;;;;;;;;;;5019196;28;20205;-67
2022/03/06 00:27:05;;;;;;;23.60;10.67;;;;;;;;;;5024693;28;20248;-66
2022/03/06 00:29:30;;;;;;;23.17;10.60;;;;;;;;;;5027059;28;20610;-68
2022/03/06 00:31:56;;;;;;;16.77;9.70;;;;;;;;;;5026698;28;20334;-68
2022/03/06 00:34:21;;;;;;;21.30;10.23;;;;;;;;;;5024181;28;20186;-66
2022/03/06 00:36:46;;;;;;;25.10;10.33;;;;;;;;;;5028270;28;20548;-67
2022/03/06 00:39:12;;;;;;;20.10;10.10;;;;;;;;;;5023860;28;20189;-67
2022/03/06 00:41:38;;;;;;;24.10;10.90;;;;;;;;;;5026525;28;20244;-66
2022/03/06 00:44:04;;;;;;;22.20;10.53;;;;;;;;;;5023580;28;20218;-67
2022/03/06 00:46:29;;;;;;;20.40;10.73;;;;;;;;;;5029661;28;20190;-67
2022/03/06 00:48:54;;;;;;;22.97;10.53;;;;;;;;;;5024938;28;20190;-67
2022/03/06 00:51:20;;;;;;;22.37;10.40;;;;;;;;;;5023732;28;20306;-67
2022/03/06 00:53:48;;;;;;;21.73;10.23;;;;;;;;;;5024700;28;20192;-68
2022/03/06 00:56:13;;;;;;;21.80;10.20;;;;;;;;;;5016271;28;20273;-67
2022/03/06 00:58:39;;;;;;;26.67;10.10;;;;;;;;;;5023742;28;20276;-67
2022/03/06 01:01:05;;;;;;;23.07;9.93;;;;;;;;;;5029295;28;20178;-67
2022/03/06 01:03:31;;;;;;;22.47;11.00;;;;;;;;;;5023181;28;20190;-67
2022/03/06 01:05:57;;;;;;;25.67;10.97;;;;;;;;;;5027816;28;20265;-68
2022/03/06 01:08:22;;;;;;;21.13;10.37;;;;;;;;;;5022278;28;20599;-67
2022/03/06 01:10:49;;;;;;;20.17;9.80;;;;;;;;;;5025220;28;20244;-67
2022/03/06 01:13:15;;;;;;;21.43;10.40;;;;;;;;;;5025411;28;20194;-67
2022/03/06 01:15:41;;;;;;;18.30;9.27;;;;;;;;;;5023658;28;20202;-67
2022/03/06 01:18:06;;;;;;;20.40;10.07;;;;;;;;;;5025370;28;20652;-67
2022/03/06 01:20:33;;;;;;;20.63;9.87;;;;;;;;;;5027367;28;20197;-68
2022/03/06 01:22:58;;;;;;;21.30;10.17;;;;;;;;;;5019453;28;20187;-67
2022/03/06 01:25:24;;;;;;;19.40;9.77;;;;;;;;;;5025185;28;20583;-68
2022/03/06 01:27:49;;;;;;;22.67;10.53;;;;;;;;;;5023683;28;20194;-68
2022/03/06 01:30:15;;;;;;;22.17;10.83;;;;;;;;;;5024012;28;20189;-67
2022/03/06 01:32:42;;;;;;;22.87;10.23;;;;;;;;;;5025091;28;20202;-67
2022/03/06 01:35:07;;;;;;;19.10;10.20;;;;;;;;;;5020843;28;20182;-66
2022/03/06 01:37:33;;;;;;;27.47;11.43;;;;;;;;;;5021197;28;20567;-67
2022/03/06 01:39:58;;;;;;;20.93;10.37;;;;;;;;;;5027002;28;20659;-66
2022/03/06 01:42:24;;;;;;;21.93;10.63;;;;;;;;;;5023358;28;20201;-66
2022/03/06 01:44:50;;;;;;;21.33;10.97;;;;;;;;;;5015272;28;20533;-67
2022/03/06 01:47:44;;;;;;;22.37;10.80;;;;;;;;;;5024051;28;20472;-68
2022/03/06 01:50:19;;;;;;;20.90;10.13;;;;;;;;;;5022573;28;20236;-67
2022/03/06 01:52:47;;;;;;;20.17;9.70;;;;;;;;;;5021842;28;20192;-67
2022/03/06 01:55:13;;;;;;;21.20;10.27;;;;;;;;;;5023635;28;20665;-67
2022/03/06 01:57:40;;;;;;;20.50;10.87;;;;;;;;;;5021566;28;20661;-67
2022/03/06 02:00:09;;;;;;;24.90;12.17;;;;;;;;;;5027597;28;20280;-67
2022/03/06 02:02:34;;;;;;;25.07;11.40;;;;;;;;;;5021427;28;20182;-67
2022/03/06 02:05:00;;;;;;;21.33;10.87;;;;;;;;;;5021944;28;20719;-67
2022/03/06 02:07:26;;;;;;;24.03;11.27;;;;;;;;;;5020924;28;20190;-67
2022/03/06 02:09:52;;;;;;;24.27;10.93;;;;;;;;;;5025611;28;20269;-67
2022/03/06 02:12:23;;;;;;;23.53;11.60;;;;;;;;;;5022228;28;20277;-67
2022/03/06 02:14:54;;;;;;;21.83;10.83;;;;;;;;;;5018543;28;20181;-67
2022/03/06 02:17:20;;;;;;;23.97;11.40;;;;;;;;;;5022144;28;20641;-68
2022/03/06 02:19:52;;;;;;;23.63;11.17;;;;;;;;;;5018399;28;20273;-67
2022/03/06 02:22:23;;;;;;;23.60;11.10;;;;;;;;;;5023677;28;20196;-67
2022/03/06 02:24:48;;;;;;;26.00;11.87;;;;;;;;;;5029659;28;20595;-66
2022/03/06 02:27:14;;;;;;;19.60;10.10;;;;;;;;;;5021248;28;20227;-67
2022/03/06 02:29:41;;;;;;;22.83;11.43;;;;;;;;;;5023906;28;20189;-67
2022/03/06 02:32:11;;;;;;;22.77;11.23;;;;;;;;;;5021483;28;20205;-67
2022/03/06 02:34:41;;;;;;;24.57;11.60;;;;;;;;;;5019936;28;20241;-67
2022/03/06 02:37:06;;;;;;;22.97;10.57;;;;;;;;;;5021177;28;20237;-67
2022/03/06 02:39:32;;;;;;;23.77;10.63;;;;;;;;;;5023430;28;20624;-68
2022/03/06 02:41:58;;;;;;;22.73;11.33;;;;;;;;;;5024486;28;20243;-67
2022/03/06 02:44:24;;;;;;;21.97;10.43;;;;;;;;;;5023410;28;20222;-67
2022/03/06 02:46:51;;;;;;;25.23;11.63;;;;;;;;;;5022975;28;20194;-67
2022/03/06 02:49:20;;;;;;;20.20;10.70;;;;;;;;;;5022571;28;20219;-66
2022/03/06 02:51:45;;;;;;;19.50;10.30;;;;;;;;;;5024252;28;20270;-67
2022/03/06 02:54:17;;;;;;;23.33;11.13;;;;;;;;;;5023723;28;20257;-67
2022/03/06 02:56:43;;;;;;;23.30;9.93;;;;;;;;;;5023577;28;20804;-67
2022/03/06 02:59:09;;;;;;;22.60;10.97;;;;;;;;;;5021427;28;20186;-67
2022/03/06 03:01:39;;;;;;;27.47;11.43;;;;;;;;;;5024765;28;20340;-67
2022/03/06 03:04:05;;;;;;;19.63;10.43;;;;;;;;;;5022748;28;20221;-67
2022/03/06 03:06:30;;;;;;;19.77;11.20;;;;;;;;;;5019441;28;20191;-67
2022/03/06 03:08:57;;;;;;;24.30;10.83;;;;;;;;;;5022330;28;20254;-67
2022/03/06 03:11:23;;;;;;;25.90;12.13;;;;;;;;;;5020395;28;20353;-66
2022/03/06 03:13:48;;;;;;;23.20;11.37;;;;;;;;;;5026766;28;20320;-67
2022/03/06 03:16:14;;;;;;;22.13;10.73;;;;;;;;;;5020190;28;20243;-67
2022/03/06 03:18:39;;;;;;;24.90;10.57;;;;;;;;;;5023586;28;20229;-67
2022/03/06 03:21:04;;;;;;;22.57;10.63;;;;;;;;;;5021899;28;20646;-67
2022/03/06 03:23:30;;;;;;;25.40;11.23;;;;;;;;;;5023833;28;20182;-68
2022/03/06 03:25:55;;;;;;;24.17;10.97;;;;;;;;;;5019277;28;20273;-65
2022/03/06 03:28:21;;;;;;;22.93;11.00;;;;;;;;;;5018384;28;20271;-67
2022/03/06 03:30:46;;;;;;;24.50;11.10;;;;;;;;;;5027254;28;20210;-67
2022/03/06 03:33:11;;;;;;;25.77;11.73;;;;;;;;;;5028785;28;20182;-67
2022/03/06 03:35:37;;;;;;;22.40;11.03;;;;;;;;;;5024677;28;20559;-67
2022/03/06 03:38:02;;;;;;;23.37;11.07;;;;;;;;;;5025780;28;20198;-67
2022/03/06 03:40:27;;;;;;;23.63;10.90;;;;;;;;;;5029680;28;20545;-67
2022/03/06 03:42:53;;;;;;;18.80;10.30;;;;;;;;;;5024885;28;20637;-67
2022/03/06 03:45:18;;;;;;;23.53;10.63;;;;;;;;;;5032239;28;20285;-67
2022/03/06 03:47:43;;;;;;;22.53;10.70;;;;;;;;;;5028049;28;20178;-68
2022/03/06 03:50:09;;;;;;;25.20;11.30;;;;;;;;;;5027087;28;20200;-68
2022/03/06 03:52:35;;;;;;;23.17;10.67;;;;;;;;;;5026294;28;20237;-67
2022/03/06 03:55:01;;;;;;;23.03;11.40;;;;;;;;;;5026376;28;20340;-67
2022/03/06 03:57:26;;;;;;;20.17;10.87;;;;;;;;;;5025292;28;20412;-67
2022/03/06 03:59:52;;;;;;;25.13;10.10;;;;;;;;;;5029568;28;20186;-67
2022/03/06 04:02:17;;;;;;;25.63;10.20;;;;;;;;;;5021408;28;20198;-67
2022/03/06 04:04:43;;;;;;;21.00;11.23;;;;;;;;;;5027954;28;20263;-67
2022/03/06 04:07:08;;;;;;;22.90;11.77;;;;;;;;;;5025084;28;20186;-67
2022/03/06 04:09:34;;;;;;;23.00;11.17;;;;;;;;;;5027818;28;20587;-67
2022/03/06 04:11:59;;;;;;;25.57;11.97;;;;;;;;;;5021635;28;20212;-67
2022/03/06 04:14:25;;;;;;;24.03;11.57;;;;;;;;;;5028961;28;20251;-67
2022/03/06 04:16:50;;;;;;;26.57;11.23;;;;;;;;;;5024728;28;20202;-68
2022/03/06 04:19:16;;;;;;;22.87;11.80;;;;;;;;;;5010827;28;20238;-67
2022/03/06 04:21:41;;;;;;;20.93;10.63;;;;;;;;;;5021974;28;20421;-67
2022/03/06 04:24:07;;;;;;;25.73;10.90;;;;;;;;;;5022488;28;20198;-67
2022/03/06 04:26:34;;;;;;;24.13;10.63;;;;;;;;;;5022252;28;20200;-67
2022/03/06 04:28:59;;;;;;;22.03;11.23;;;;;;;;;;5026630;28;20603;-67
2022/03/06 04:31:24;;;;;;;20.40;10.77;;;;;;;;;;5025343;28;20210;-66
2022/03/06 04:33:50;;;;;;;25.43;12.17;;;;;;;;;;5024265;28;20197;-66
2022/03/06 04:36:15;;;;;;;25.33;11.17;;;;;;;;;;5023876;28;20194;-66
2022/03/06 04:38:41;;;;;;;23.13;11.53;;;;;;;;;;5026239;28;20209;-66
2022/03/06 04:41:06;;;;;;;24.07;11.57;;;;;;;;;;5021747;28;20182;-66
2022/03/06 04:43:32;;;;;;;24.17;12.60;;;;;;;;;;5030300;28;20489;-66
2022/03/06 04:45:57;;;;;;;29.20;13.10;;;;;;;;;;5022476;28;20217;-66
2022/03/06 04:48:22;;;;;;;24.77;12.37;;;;;;;;;;5026697;28;20283;-66
2022/03/06 04:50:48;;;;;;;28.00;12.73;;;;;;;;;;5023798;28;20531;-67
2022/03/06 04:53:13;;;;;;;24.70;11.50;;;;;;;;;;5024847;28;20224;-67
2022/03/06 04:55:38;;;;;;;23.03;12.10;;;;;;;;;;5026206;28;20198;-67
2022/03/06 04:58:04;;;;;;;26.13;12.57;;;;;;;;;;5025379;28;20256;-67
2022/03/06 05:00:30;;;;;;;26.40;12.40;;;;;;;;;;5024889;28;20219;-67
2022/03/06 05:02:55;;;;;;;26.97;12.03;;;;;;;;;;5021458;28;20233;-66
2022/03/06 05:05:20;;;;;;;26.83;13.23;;;;;;;;;;5024899;28;20230;-66
2022/03/06 05:07:46;;;;;;;26.60;12.17;;;;;;;;;;5025662;28;20211;-67
2022/03/06 05:10:11;;;;;;;28.27;13.40;;;;;;;;;;5025631;28;20204;-67
2022/03/06 05:12:39;;;;;;;28.83;12.50;;;;;;;;;;5026833;28;20653;-66
2022/03/06 05:15:06;;;;;;;26.80;13.33;;;;;;;;;;5030160;28;20175;-66
2022/03/06 05:17:31;;;;;;;25.73;12.30;;;;;;;;;;5021615;28;20203;-67
2022/03/06 05:19:56;;;;;;;25.77;13.03;;;;;;;;;;5025537;28;20413;-67
2022/03/06 05:22:22;;;;;;;26.73;12.83;;;;;;;;;;5023554;28;20239;-67
2022/03/06 05:24:47;;;;;;;25.93;13.00;;;;;;;;;;5029103;28;20246;-67
2022/03/06 05:27:12;;;;;;;26.87;12.87;;;;;;;;;;5023540;28;20312;-67
2022/03/06 05:29:38;;;;;;;21.13;10.47;;;;;;;;;;5022899;28;20235;-68
2022/03/06 05:32:03;;;;;;;22.47;11.40;;;;;;;;;;5021580;28;20316;-67
2022/03/06 05:34:29;;;;;;;27.83;13.03;;;;;;;;;;5026540;28;20209;-67
2022/03/06 05:36:54;;;;;;;28.27;12.63;;;;;;;;;;5025248;28;20228;-67
2022/03/06 05:39:20;;;;;;;26.67;13.47;;;;;;;;;;5040765;28;20194;-66
2022/03/06 05:41:45;;;;;;;24.57;12.43;;;;;;;;;;5023481;28;20201;-66
2022/03/06 05:44:10;;;;;;;25.37;12.83;;;;;;;;;;5029281;28;20621;-66
2022/03/06 05:46:36;;;;;;;23.93;12.13;;;;;;;;;;5024606;28;20335;-67
2022/03/06 05:49:01;;;;;;;26.50;13.27;;;;;;;;;;5025437;28;20221;-67
2022/03/06 05:51:26;;;;;;;25.47;11.90;;;;;;;;;;5023611;28;20191;-67
2022/03/06 05:53:52;;;;;;;26.70;12.00;;;;;;;;;;5030397;28;20223;-67
2022/03/06 05:56:17;;;;;;;26.10;12.30;;;;;;;;;;5024631;28;20221;-67
2022/03/06 05:58:42;;;;;;;26.43;12.60;;;;;;;;;;5027064;28;20204;-67
2022/03/06 06:01:08;;;;;;;24.67;11.77;;;;;;;;;;5022346;28;20221;-67
2022/03/06 06:03:33;;;;;;;24.23;11.60;;;;;;;;;;5023108;28;20237;-67
2022/03/06 06:05:58;;;;;;;25.03;11.50;;;;;;;;;;5020944;28;20804;-67
2022/03/06 06:08:24;;;;;;;25.17;12.83;;;;;;;;;;5026475;28;20186;-66
2022/03/06 06:10:49;;;;;;;27.20;12.47;;;;;;;;;;5023812;28;20202;-66
2022/03/06 06:13:15;;;;;;;26.40;11.83;;;;;;;;;;5035821;28;20201;-67
2022/03/06 06:15:43;;;;;;;26.90;12.33;;;;;;;;;;5021963;28;20297;-67
2022/03/06 06:18:12;;;;;;;24.40;11.67;;;;;;;;;;5020054;28;20324;-67
2022/03/06 06:20:38;;;;;;;22.43;11.40;;;;;;;;;;5022827;28;20590;-67
2022/03/06 06:23:04;;;;;;;21.13;10.83;;;;;;;;;;5023840;28;20266;-67
2022/03/06 06:25:30;;;;;;;25.07;12.57;;;;;;;;;;5022919;28;20182;-67
2022/03/06 06:27:55;;;;;;;29.83;12.20;;;;;;;;;;5016999;28;20263;-66
2022/03/06 06:30:20;;;;;;;26.90;12.77;;;;;;;;;;5033422;28;20209;-67
2022/03/06 06:32:46;;;;;;;24.57;12.23;;;;;;;;;;5025374;28;20700;-67
2022/03/06 06:35:11;;;;;;;24.50;12.47;;;;;;;;;;5033416;28;20217;-67
2022/03/06 06:37:36;;;;;;;23.50;12.30;;;;;;;;;;5028815;28;20562;-67
2022/03/06 06:40:02;;;;;;;27.03;11.87;;;;;;;;;;5034446;28;20194;-67
2022/03/06 06:42:27;;;;;;;28.57;12.10;;;;;;;;;;5023495;28;20190;-67
2022/03/06 06:44:53;;;;;;;21.93;12.73;;;;;;;;;;5019068;28;20289;-67
2022/03/06 06:47:18;;;;;;;25.77;13.27;;;;;;;;;;5024339;28;20179;-68
2022/03/06 06:49:43;;;;;;;24.07;12.70;;;;;;;;;;5036339;28;20185;-69
2022/03/06 06:52:09;;;;;;;25.97;12.33;;;;;;;;;;5024960;28;20601;-67
2022/03/06 06:54:34;;;;;;;23.23;12.30;;;;;;;;;;5039036;28;20309;-67
2022/03/06 06:56:59;;;;;;;23.20;12.23;;;;;;;;;;5022595;28;20226;-67
2022/03/06 06:59:25;;;;;;;25.17;12.80;;;;;;;;;;5025117;28;20658;-67
2022/03/06 07:01:50;;;;;;;25.43;12.37;;;;;;;;;;5017679;28;20204;-67
2022/03/06 07:04:17;;;;;;;22.97;11.67;;;;;;;;;;5036587;28;20273;-67
2022/03/06 07:06:42;;;;;;;20.87;11.53;;;;;;;;;;5025501;28;20559;-67
2022/03/06 07:09:08;;;;;;;20.20;10.97;;;;;;;;;;5038809;28;20194;-68
2022/03/06 07:11:33;;;;;;;20.00;10.57;;;;;;;;;;5031780;28;20193;-67
2022/03/06 07:13:58;;;;;;;21.03;12.10;;;;;;;;;;5033049;28;20197;-67
2022/03/06 07:16:24;;;;;;;17.10;9.73;;;;;;;;;;5026967;28;20253;-67
2022/03/06 07:18:49;;;;;;;16.23;10.33;;;;;;;;;;5032938;28;20190;-67
2022/03/06 07:21:14;;;;;;;19.00;10.37;;;;;;;;;;5035226;28;20757;-67
2022/03/06 07:23:40;;;;;;;17.43;9.90;;;;;;;;;;5032140;28;20214;-67
2022/03/06 07:26:05;;;;;;;20.03;10.57;;;;;;;;;;5033617;28;20189;-67
2022/03/06 07:28:30;;;;;;;18.87;9.83;;;;;;;;;;5029227;28;20177;-67
2022/03/06 07:30:56;;;;;;;17.13;10.10;;;;;;;;;;5035568;28;20197;-67
2022/03/06 07:33:21;;;;;;;14.93;8.60;;;;;;;;;;5028649;28;20190;-67
2022/03/06 07:35:47;;;;;;;15.20;8.90;;;;;;;;;;5041906;28;20177;-67
2022/03/06 07:38:12;;;;;;;15.87;8.50;;;;;;;;;;5021831;28;20403;-67
2022/03/06 07:40:37;;;;;;;14.83;8.53;;;;;;;;;;5034987;28;20188;-67
2022/03/06 07:43:03;;;;;;;15.53;8.27;;;;;;;;;;5024847;28;20225;-66
2022/03/06 07:45:28;;;;;;;13.60;7.30;;;;;;;;;;5032872;28;20598;-66
2022/03/06 07:47:54;;;;;;;13.57;7.03;;;;;;;;;;5025968;28;20236;-66
2022/03/06 07:50:20;;;;;;;12.43;7.50;;;;;;;;;;5036007;28;20268;-66
2022/03/06 07:52:45;;;;;;;12.10;7.67;;;;;;;;;;5024217;28;20250;-68
2022/03/06 07:55:11;;;;;;;11.47;6.87;;;;;;;;;;5037287;28;20611;-66
2022/03/06 07:57:37;;;;;;;11.07;6.87;;;;;;;;;;5027335;28;20202;-67
2022/03/06 08:00:06;;;;;;;12.37;6.90;;;;;;;;;;5037816;28;20283;-67
2022/03/06 08:02:31;;;;;;;11.13;6.33;;;;;;;;;;5024414;28;20251;-67
2022/03/06 08:04:56;;;;;;;14.90;6.83;;;;;;;;;;5035739;28;20214;-67
2022/03/06 08:07:22;;;;;;;12.10;6.10;;;;;;;;;;5029042;28;20198;-67
2022/03/06 08:09:47;;;;;;;9.70;6.27;;;;;;;;;;5032297;28;20220;-66
2022/03/06 08:12:12;;;;;;;9.90;5.73;;;;;;;;;;5022486;28;20190;-68
2022/03/06 08:14:38;;;;;;;13.53;5.87;;;;;;;;;;5027130;28;20545;-68
2022/03/06 08:17:03;;;;;;;8.73;5.03;;;;;;;;;;5032457;28;20194;-68
2022/03/06 08:19:29;;;;;;;8.90;4.97;;;;;;;;;;5033803;28;20191;-67
2022/03/06 08:21:54;;;;;;;8.73;4.40;;;;;;;;;;5032570;28;20351;-67
2022/03/06 08:24:20;;;;;;;8.50;4.20;;;;;;;;;;5030105;28;20343;-66
2022/03/06 08:26:45;;;;;;;10.37;4.67;;;;;;;;;;5038501;28;20182;-66
2022/03/06 08:29:11;;;;;;;8.67;4.43;;;;;;;;;;5034048;28;20181;-67
2022/03/06 08:31:36;;;;;;;8.03;4.67;;;;;;;;;;5036851;28;20652;-67
2022/03/06 08:34:02;;;;;;;6.60;3.80;;;;;;;;;;5027119;28;20274;-67
2022/03/06 08:36:28;;;;;;;5.90;3.63;;;;;;;;;;5038321;28;20519;-66
2022/03/06 08:38:53;;;;;;;9.37;4.40;;;;;;;;;;5025148;28;20194;-66
2022/03/06 08:41:18;;;;;;;9.80;4.70;;;;;;;;;;5035177;28;20193;-66
2022/03/06 08:43:44;;;;;;;7.73;3.67;;;;;;;;;;5027552;28;20221;-66
2022/03/06 08:46:09;;;;;;;5.77;3.87;;;;;;;;;;5034530;28;20189;-66
2022/03/06 08:48:37;;;;;;;8.27;4.20;;;;;;;;;;5027360;28;20484;-67
2022/03/06 08:51:04;;;;;;;5.80;3.80;;;;;;;;;;5022889;28;20217;-67
2022/03/06 08:53:30;;;;;;;6.47;4.43;;;;;;;;;;5030674;28;20320;-67
2022/03/06 08:55:56;;;;;;;7.40;3.97;;;;;;;;;;5040446;28;20379;-67
2022/03/06 08:58:22;;;;;;;11.77;4.70;;;;;;;;;;5023793;28;20218;-67
2022/03/06 09:00:47;;;;;;;7.30;4.60;;;;;;;;;;5031611;28;20690;-67
2022/03/06 09:03:12;;;;;;;6.63;3.50;;;;;;;;;;5026777;28;20685;-67
2022/03/06 09:05:40;;;;;;;5.93;3.90;;;;;;;;;;5023510;28;20221;-67
2022/03/06 09:08:07;;;;;;;6.10;3.50;;;;;;;;;;5026593;28;20183;-67
2022/03/06 09:10:33;;;;;;;8.93;4.23;;;;;;;;;;5043267;28;20251;-67
2022/03/06 09:13:00;;;;;;;6.57;3.40;;;;;;;;;;5028215;28;20198;-67
2022/03/06 09:15:26;;;;;;;6.83;3.20;;;;;;;;;;5032837;28;20189;-67
2022/03/06 09:17:51;;;;;;;5.20;3.17;;;;;;;;;;5022145;28;20206;-67
2022/03/06 09:20:16;;;;;;;6.73;3.33;;;;;;;;;;5020627;28;20277;-67
2022/03/06 09:22:41;;;;;;;3.63;2.60;;;;;;;;;;5025951;28;20190;-67
2022/03/06 09:25:07;;;;;;;4.70;2.40;;;;;;;;;;5032232;28;20193;-67
2022/03/06 09:27:32;;;;;;;5.10;2.47;;;;;;;;;;5025693;28;20200;-67
2022/03/06 09:29:58;;;;;;;5.27;2.73;;;;;;;;;;5036151;28;20188;-66
2022/03/06 09:32:23;;;;;;;7.17;2.50;;;;;;;;;;5033271;28;20547;-68
2022/03/06 09:34:48;;;;;;;6.07;2.33;;;;;;;;;;5031516;28;20451;-67
2022/03/06 09:37:14;;;;;;;6.17;2.70;;;;;;;;;;5029964;28;20205;-67
2022/03/06 09:39:40;;;;;;;3.70;2.27;;;;;;;;;;5033657;28;20224;-67
2022/03/06 09:42:05;;;;;;;5.30;2.63;;;;;;;;;;5033569;28;20609;-67
2022/03/06 09:44:32;;;;;;;3.17;2.30;;;;;;;;;;5036760;28;20190;-67
2022/03/06 09:46:58;;;;;;;4.50;1.97;;;;;;;;;;5029351;28;20186;-67
2022/03/06 09:49:24;;;;;;;4.13;2.30;;;;;;;;;;5027835;28;20194;-68
2022/03/06 09:51:50;;;;;;;4.53;2.40;;;;;;;;;;5023633;28;20823;-67
2022/03/06 09:54:16;;;;;;;4.97;2.10;;;;;;;;;;5016317;28;20193;-68
2022/03/06 09:56:42;;;;;;;5.83;2.80;;;;;;;;;;5034285;28;20364;-68
2022/03/06 09:59:08;;;;;;;6.83;2.77;;;;;;;;;;5018992;28;20222;-67
2022/03/06 10:01:34;;;;;;;4.83;2.60;;;;;;;;;;5023350;28;20243;-67
2022/03/06 10:04:25;;;;;;;3.83;2.30;;;;;;;;;;5016953;28;20225;-67
2022/03/06 10:07:03;;;;;;;5.20;2.80;;;;;;;;;;5021901;28;20240;-68
2022/03/06 10:09:29;;;;;;;6.33;2.50;;;;;;;;;;5022179;28;20635;-67
2022/03/06 10:11:54;;;;;;;6.30;2.23;;;;;;;;;;5017470;28;20201;-67
2022/03/06 10:14:41;;;;;;;5.67;2.60;;;;;;;;;;5019834;28;20213;-67
2022/03/06 10:17:14;;;;;;;6.70;2.73;;;;;;;;;;5020521;28;20205;-67
2022/03/06 10:19:48;;;;;;;4.87;2.07;;;;;;;;;;5019516;28;20189;-67
2022/03/06 10:22:14;;;;;;;4.57;2.33;;;;;;;;;;5022599;28;20613;-66
2022/03/06 10:24:54;;;;;;;4.77;2.57;;;;;;;;;;5019642;28;20186;-67
2022/03/06 10:27:45;;;;;;;5.17;2.33;;;;;;;;;;5023805;28;20297;-68
2022/03/06 10:30:31;;;;;;;4.37;2.67;;;;;;;;;;5026569;28;20192;-68
2022/03/06 10:32:59;;;;;;;4.50;2.73;;;;;;;;;;5019358;28;20658;-67
2022/03/06 10:35:31;;;;;;;3.53;2.40;;;;;;;;;;5027260;28;20174;-68
2022/03/06 10:37:57;;;;;;;5.37;2.77;;;;;;;;;;5022778;28;20194;-68
2022/03/06 10:40:38;;;;;;;6.63;2.77;;;;;;;;;;5023026;28;20182;-68
2022/03/06 10:43:23;;;;;;;5.43;3.10;;;;;;;;;;5023398;28;20331;-66
2022/03/06 10:45:51;;;;;;;5.10;2.43;;;;;;;;;;5025361;28;20202;-67
2022/03/06 10:48:17;;;;;;;4.07;2.73;;;;;;;;;;5025109;28;20182;-67
2022/03/06 10:50:43;;;;;;;5.10;2.87;;;;;;;;;;5027003;28;20585;-67
2022/03/06 10:53:22;;;;;;;6.47;3.20;;;;;;;;;;5024356;28;20198;-68
2022/03/06 10:55:49;;;;;;;7.23;3.10;;;;;;;;;;5027040;28;20189;-67
2022/03/06 10:58:14;;;;;;;5.10;3.00;;;;;;;;;;5025932;28;20212;-68
2022/03/06 11:00:41;;;;;;;6.60;3.70;;;;;;;;;;5019492;28;20216;-67
2022/03/06 11:03:07;;;;;;;6.40;3.03;;;;;;;;;;5026989;28;20262;-67
2022/03/06 11:05:33;;;;;;;4.63;2.80;;;;;;;;;;5016830;28;20260;-67
2022/03/06 11:08:00;;;;;;;5.37;3.40;;;;;;;;;;5021626;28;20214;-67
2022/03/06 11:10:27;;;;;;;9.40;3.17;;;;;;;;;;5021193;28;20194;-67
2022/03/06 11:12:53;;;;;;;7.90;3.57;;;;;;;;;;5021167;28;20186;-67
2022/03/06 11:15:20;;;;;;;7.23;3.20;;;;;;;;;;5022351;28;20749;-68
2022/03/06 11:17:45;;;;;;;6.67;3.60;;;;;;;;;;5021832;28;20285;-67
2022/03/06 11:20:11;;;;;;;5.77;3.03;;;;;;;;;;5016533;28;20672;-67
2022/03/06 11:22:49;;;;;;;6.23;3.63;;;;;;;;;;5019421;28;20182;-67
2022/03/06 11:25:20;;;;;;;5.07;2.97;;;;;;;;;;5019501;28;20403;-67
2022/03/06 11:28:09;;;;;;;5.43;3.20;;;;;;;;;;5016306;28;20483;-68
2022/03/06 11:30:35;;;;;;;6.53;3.70;;;;;;;;;;5019882;28;20213;-68
2022/03/06 11:33:08;;;;;;;7.10;3.67;;;;;;;;;;5024939;28;21996;-67
2022/03/06 11:35:37;;;;;;;6.90;3.90;;;;;;;;;;5022673;28;20182;-68
2022/03/06 11:38:04;;;;;;;8.03;3.27;;;;;;;;;;5022731;28;20268;-67
2022/03/06 11:40:40;;;;;;;6.40;3.93;;;;;;;;;;5023738;28;20197;-67
2022/03/06 11:43:07;;;;;;;8.93;4.27;;;;;;;;;;5014673;28;20208;-67
2022/03/06 11:45:49;;;;;;;5.23;3.33;;;;;;;;;;5021228;28;20382;-68
2022/03/06 11:48:23;;;;;;;8.27;3.57;;;;;;;;;;5022514;28;20197;-68
2022/03/06 11:51:22;;;;;;;4.90;3.50;;;;;;;;;;5017010;28;20214;-68
2022/03/06 11:54:06;;;;;;;5.93;3.67;;;;;;;;;;5022336;28;20197;-67
2022/03/06 11:56:34;;;;;;;4.30;3.20;;;;;;;;;;5023494;28;20669;-67
2022/03/06 11:59:11;;;;;;;8.27;4.17;;;;;;;;;;5026657;28;20213;-67
2022/03/06 12:02:01;;;;;;;8.90;3.63;;;;;;;;;;5023826;28;20193;-67
2022/03/06 12:04:30;;;;;;;8.07;4.13;;;;;;;;;;5025496;28;20226;-67
2022/03/06 12:07:01;;;;;;;6.17;3.57;;;;;;;;;;5028117;28;20708;-66
2022/03/06 12:09:32;;;;;;;7.17;4.30;;;;;;;;;;5028446;28;20360;-67
2022/03/06 12:12:21;;;;;;;6.20;3.90;;;;;;;;;;5033392;28;20201;-67
2022/03/06 12:14:51;;;;;;;7.67;4.63;;;;;;;;;;5029586;28;20243;-66
2022/03/06 12:17:18;;;;;;;8.27;4.50;;;;;;;;;;5036805;28;20228;-67
2022/03/06 12:19:43;;;;;;;6.97;4.30;;;;;;;;;;5036576;28;20677;-67
2022/03/06 12:22:16;;;;;;;6.70;3.80;;;;;;;;;;5032728;28;20204;-67
2022/03/06 12:24:43;;;;;;;6.70;3.93;;;;;;;;;;5036773;28;20632;-67
2022/03/06 12:27:17;;;;;;;7.07;4.30;;;;;;;;;;5032535;28;20182;-68
2022/03/06 12:29:46;;;;;;;8.73;4.40;;;;;;;;;;5041241;28;20597;-68
2022/03/06 12:32:31;;;;;;;10.13;4.43;;;;;;;;;;5027849;28;20646;-67
2022/03/06 12:35:05;;;;;;;8.23;4.43;;;;;;;;;;5033254;28;20209;-67
2022/03/06 12:37:38;;;;;;;7.10;4.40;;;;;;;;;;5028401;28;20201;-68
2022/03/06 12:40:15;;;;;;;8.17;4.43;;;;;;;;;;5033017;28;20838;-68
2022/03/06 12:42:43;;;;;;;7.40;4.43;;;;;;;;;;5036605;28;20188;-68
2022/03/06 12:45:17;;;;;;;6.80;4.20;;;;;;;;;;5035356;28;20356;-68
2022/03/06 12:47:44;;;;;;;7.63;4.27;;;;;;;;;;5029721;28;20182;-68
2022/03/06 12:50:18;;;;;;;6.43;4.00;;;;;;;;;;5029910;28;20234;-68
2022/03/06 12:52:45;;;;;;;6.43;3.90;;;;;;;;;;5024194;28;20670;-67
2022/03/06 12:55:16;;;;;;;7.37;4.60;;;;;;;;;;5031484;28;20186;-67
2022/03/06 12:57:50;;;;;;;6.10;4.10;;;;;;;;;;5039743;28;20194;-68
2022/03/06 13:00:24;;;;;;;10.27;4.07;;;;;;;;;;5031683;28;20193;-68
2022/03/06 13:02:57;;;;;;;5.73;3.93;;;;;;;;;;5039390;28;20193;-68
2022/03/06 13:05:25;;;;;;;8.00;4.47;;;;;;;;;;5028463;28;20360;-67
2022/03/06 13:07:52;;;;;;;5.73;4.00;;;;;;;;;;5039651;28;20534;-67
2022/03/06 13:10:19;;;;;;;8.17;3.70;;;;;;;;;;5028995;28;20189;-68
2022/03/06 13:12:46;;;;;;;7.80;4.50;;;;;;;;;;5038459;28;20190;-68
2022/03/06 13:15:11;;;;;;;7.00;4.13;;;;;;;;;;5030618;28;20186;-68
2022/03/06 13:17:37;;;;;;;6.13;3.37;;;;;;;;;;5035116;28;20574;-68
2022/03/06 13:20:02;;;;;;;5.60;4.00;;;;;;;;;;5026910;28;20266;-68
2022/03/06 13:22:28;;;;;;;5.23;3.60;;;;;;;;;;5040162;28;20236;-67
2022/03/06 13:24:56;;;;;;;8.53;3.57;;;;;;;;;;5027475;28;20609;-68
2022/03/06 13:27:24;;;;;;;4.83;3.10;;;;;;;;;;5037494;28;20273;-68
2022/03/06 13:30:14;;;;;;;4.53;2.77;;;;;;;;;;5029623;28;20675;-68
2022/03/06 13:32:48;;;;;;;4.67;2.53;;;;;;;;;;5030788;28;20239;-66
2022/03/06 13:35:43;;;;;;;4.27;2.10;;;;;;;;;;5030699;28;21715;-67
2022/03/06 13:38:11;;;;;;;4.50;2.57;;;;;;;;;;5027286;28;20946;-66
2022/03/06 13:40:42;;;;;;;3.93;2.40;;;;;;;;;;5042080;28;20517;-67
2022/03/06 13:43:08;;;;;;;3.13;2.13;;;;;;;;;;5024014;28;20292;-68
2022/03/06 13:45:34;;;;;;;2.63;2.10;;;;;;;;;;5038787;28;20209;-67
2022/03/06 13:48:06;;;;;;;3.67;2.13;;;;;;;;;;5027882;28;20262;-67
2022/03/06 13:50:43;;;;;;;2.90;2.10;;;;;;;;;;5033102;28;20181;-67
2022/03/06 13:53:10;;;;;;;3.10;2.50;;;;;;;;;;5028681;28;20192;-66
2022/03/06 13:55:48;;;;;;;5.40;2.13;;;;;;;;;;5039952;28;20193;-67
2022/03/06 13:58:16;;;;;;;2.23;1.63;;;;;;;;;;5030375;28;20688;-67
2022/03/06 14:00:43;;;;;;;5.13;2.30;;;;;;;;;;5034882;28;20201;-67
2022/03/06 14:03:13;;;;;;;2.77;1.97;;;;;;;;;;5031059;28;20504;-66
2022/03/06 14:05:50;;;;;;;6.63;2.20;;;;;;;;;;5034244;28;20470;-68
2022/03/06 14:08:15;;;;;;;3.67;2.10;;;;;;;;;;5032127;28;20242;-67
2022/03/06 14:10:55;;;;;;;3.23;2.00;;;;;;;;;;5032586;28;20262;-67
2022/03/06 14:13:36;;;;;;;3.83;2.47;;;;;;;;;;5032360;28;20200;-69
2022/03/06 14:16:08;;;;;;;2.80;1.90;;;;;;;;;;5025941;28;20198;-67
2022/03/06 14:18:49;;;;;;;4.20;2.30;;;;;;;;;;5034934;28;20220;-67
2022/03/06 14:21:19;;;;;;;3.23;2.30;;;;;;;;;;5025359;28;20193;-67
2022/03/06 14:23:50;;;;;;;3.93;2.00;;;;;;;;;;5040017;28;20185;-67
2022/03/06 14:26:20;;;;;;;3.13;2.10;;;;;;;;;;5027567;28;20323;-67
2022/03/06 14:29:00;;;;;;;3.33;2.37;;;;;;;;;;5025193;28;20732;-67
2022/03/06 14:31:27;;;;;;;3.77;2.23;;;;;;;;;;5040887;28;20320;-67